Предлагаем Вашему вниманию английскую версию страницы: AUTOTAF.ME UNKK - aviation weather forecast Krasnoyarsk (Severnyj)

AUTOTAF UNKK - авиапрогноз Красноярск (Северный)

Сегодня рассвет 01:21 UTC, восход солнца 02:05 UTC,
местный полдень 05:58 UTC, заход солнца 09:52 UTC,
наступление темноты 10:36 UTC.

Краткий прогноз UNKK на 9 часов

AUTOTAF.ME UNKK 190800Z 1909/1918 25008G15MPS 9999 BKN006    
  BECMG 1910/1912 24003MPS  
  BECMG 1913/1915 26007G14MPS

Детальный прогноз UNKK на 24 часа

AUTOTAF.ME UNKK 190800Z 1909/2009 25008G15MPS 9999 BKN006 TXM12/1909Z TNM20/2003Z  
  BECMG 1910/1912 24003MPS  
  BECMG 1913/1915 26007G14MPS   
  FM192100 26008G13MPS 5000 HZ BKN007 
  FM200000 26006G12MPS 9999 OVC008 
  FM200300 VRB02MPS 1000 BR BKN003 
  FM200600 25005MPS 9999 BKN009 
  BECMG 2007/2009 VRB02MPS

Подробный табличный прогноз

Время (UTC) miniAUTOTAF на 3 ч WX FZLVL
M AGL
ICE TURB Т
(°С)
Тd
(°С)
f(%) QNH
(гПа)
WIND/T
06 25009G15MPS 9999 VCSH BKN010CB TEMPO 1500 VCSH SFC MOD FL20/FL30 MOD SFC/FL40 -12 -17 65 1013 ...
09 25008G15MPS 9999 BKN006 SFC MOD FL20/FL40 MOD SFC/FL40 -12 -18 66 1013 ...
12 24003MPS 9999 BKN006 SFC MOD FL20/FL30 MOD SFC/FL40 -13 -17 71 1015 ...
15 26007G14MPS 9999 OVC006 SFC MOD FL20/FL30 MOD SFC/FL50 -12 -17 68 1014 ...
18 26008G13MPS 9999 BKN006 SFC MOD FL20/FL30 MOD SFC/FL30 -15 -19 66 1017 ...
21 26008G13MPS 5000 HZ BKN007 HZ SFC MOD FL20/FL30 MOD SFC/FL40 -17 -22 62 1020 ...
20.01.2021
00 26006G12MPS 9999 OVC008 SFC MOD SFC/FL40 -18 -23 68 1025 ...
03 VRB02MPS 1000 BR BKN003 BR SFC -20 -25 64 1029 ...
06 25005MPS 9999 BKN009 SFC MOD SFC/FL30 -19 -26 58 1031 ...
09 VRB02MPS 9999 BKN009 SFC MOD SFC/FL30 -20 -26 63 1031 ...
12 VRB02MPS 0500 FG IC BKN009 FG IC SFC -24 -27 74 1033 ...
15 VRB02MPS 0200 FG IC BKN009 FG IC SFC -27 -30 75 1033 ...
18 VRB02MPS 0200 FG IC BKN009 FG IC SFC -29 -32 74 1032 ...
21 VRB02MPS 0500 FG IC BKN009 FG IC SFC -30 -33 73 1030 ...
21.01.2021
00 VRB02MPS 0500 FG IC BKN009 FG IC SFC -31 -34 73 1029 ...
03 VRB02MPS 9999 BKN008 SFC MOD FL120/FL130 -29 -33 72 1026 ...


Широта 56.22647°, долгота 92.95693°, высота 314 м абс.
Средняя высота рельефа местности 290 м абс.
Прогнозы обновляются четыре раза в сутки: в 02, 08, 14, 20 ч всемирного времени.


Выбрать прогноз по другой модели Красноярск (Северный)
Онлайн-сводка гроз по Красноярск (Северный) (для РФ и ближнего зарубежья)
Карта фактических гроз в окрестностях Красноярск (Северный)
Динамические прогностические карты (ventusky.com)
Прогностическая карта высоты нижней границы облаков по Красноярск (Северный) (windy.com)
Выбрать другой город

Прогноз предназначен для личного научно-познавательного использования частными лицами
и не предназначен для принятия важных решений и выполнения реальных полётов воздушных судов

При копировании или ином использовании любых материалов данного сайта ссылка на © meteocenter.asia обязательна.

0.55/0.9